Anzahl Datensätze: 288
min. Temperatur: 9.0 °C
max. Temperatur: 17.6 °C
max. Windgeschwindigkeit: 28.8 km/h
Niederschlagsumme: 11.8 mm
| Datum |
Zeit |
Temp °C |
Feuchte % |
Taupunkt °C |
Luftdruck hPa |
Wind km/h |
Windrichtung |
Strahlung w/m² |
Niederschlag mm |
|---|---|---|---|---|---|---|---|---|---|
| 08.06.2025 | 00:00 | 15.1 | 88 | 13.1 | 1005.8 | 1.4 | SSW | 0 | 0.2 |
| 08.06.2025 | 00:05 | 15.1 | 88 | 13.1 | 1005.7 | 1.4 | WSW | 0 | 0.2 |
| 08.06.2025 | 00:10 | 15.1 | 88 | 13.1 | 1005.8 | 1.4 | WNW | 0 | 0.0 |
| 08.06.2025 | 00:15 | 15.3 | 89 | 13.5 | 1005.8 | 3.2 | SSW | 0 | 0.0 |
| 08.06.2025 | 00:20 | 15.3 | 89 | 13.5 | 1005.8 | 3.2 | SSO | 0 | 0.0 |
| 08.06.2025 | 00:25 | 15.2 | 90 | 13.6 | 1005.8 | 1.4 | SW | 0 | 0.2 |
| 08.06.2025 | 00:30 | 15.1 | 91 | 13.6 | 1005.6 | 1.4 | SW | 0 | 0.2 |
| 08.06.2025 | 00:35 | 15.0 | 91 | 13.5 | 1005.5 | 0.0 | S | 0 | 0.4 |
| 08.06.2025 | 00:40 | 14.9 | 91 | 13.4 | 1005.5 | 1.4 | WSW | 0 | 0.4 |
| 08.06.2025 | 00:45 | 14.9 | 91 | 13.4 | 1005.6 | 1.4 | WNW | 0 | 0.4 |
| 08.06.2025 | 00:50 | 14.9 | 91 | 13.4 | 1005.5 | 1.4 | SSW | 0 | 0.4 |
| 08.06.2025 | 00:55 | 14.8 | 91 | 13.3 | 1005.5 | 3.2 | SSW | 0 | 0.4 |
| 08.06.2025 | 01:00 | 14.9 | 91 | 13.4 | 1005.3 | 3.2 | SSW | 0 | 0.4 |
| 08.06.2025 | 01:05 | 14.8 | 91 | 13.3 | 1005.2 | 1.4 | SSW | 0 | 0.4 |
| 08.06.2025 | 01:10 | 14.8 | 91 | 13.3 | 1005.1 | 1.4 | SW | 0 | 0.4 |
| 08.06.2025 | 01:15 | 14.8 | 91 | 13.3 | 1005.0 | 1.4 | S | 0 | 0.4 |
| 08.06.2025 | 01:20 | 14.9 | 91 | 13.4 | 1005.1 | 3.2 | SSW | 0 | 0.4 |
| 08.06.2025 | 01:25 | 14.9 | 90 | 13.3 | 1005.1 | 3.2 | SSW | 0 | 0.4 |
| 08.06.2025 | 01:30 | 14.9 | 90 | 13.3 | 1005.1 | 3.2 | SW | 0 | 0.4 |
| 08.06.2025 | 01:35 | 14.9 | 90 | 13.3 | 1004.9 | 3.2 | SW | 0 | 0.4 |
| 08.06.2025 | 01:40 | 14.9 | 90 | 13.3 | 1005.0 | 4.7 | S | 0 | 0.4 |
| 08.06.2025 | 01:45 | 15.0 | 90 | 13.4 | 1004.9 | 4.7 | SW | 0 | 0.4 |
| 08.06.2025 | 01:50 | 15.0 | 90 | 13.4 | 1004.9 | 3.2 | WSW | 0 | 0.4 |
| 08.06.2025 | 01:55 | 15.0 | 90 | 13.4 | 1004.9 | 3.2 | SW | 0 | 0.4 |
| 08.06.2025 | 02:00 | 14.9 | 90 | 13.3 | 1004.8 | 3.2 | SW | 0 | 0.4 |
| 08.06.2025 | 02:05 | 14.9 | 91 | 13.4 | 1005.0 | 4.7 | SW | 0 | 0.6 |
| 08.06.2025 | 02:10 | 14.7 | 92 | 13.4 | 1005.1 | 4.7 | SSW | 0 | 1.8 |
| 08.06.2025 | 02:15 | 14.6 | 92 | 13.3 | 1005.0 | 4.7 | SSO | 0 | 2.2 |
| 08.06.2025 | 02:20 | 14.2 | 91 | 12.8 | 1004.8 | 4.7 | W | 0 | 3.0 |
| 08.06.2025 | 02:25 | 13.9 | 91 | 12.5 | 1005.0 | 4.7 | SW | 0 | 4.0 |
| 08.06.2025 | 02:30 | 13.8 | 92 | 12.5 | 1005.3 | 4.7 | WNW | 0 | 4.2 |
| 08.06.2025 | 02:35 | 13.4 | 92 | 12.1 | 1005.1 | 4.7 | SW | 0 | 5.8 |
| 08.06.2025 | 02:40 | 13.1 | 91 | 11.7 | 1005.1 | 4.7 | SSW | 0 | 8.0 |
| 08.06.2025 | 02:45 | 12.8 | 91 | 11.4 | 1005.0 | 4.7 | SW | 0 | 8.6 |
| 08.06.2025 | 02:50 | 12.7 | 92 | 11.4 | 1005.0 | 1.4 | SSW | 0 | 9.0 |
| 08.06.2025 | 02:55 | 12.7 | 93 | 11.6 | 1004.8 | 3.2 | SSW | 0 | 9.2 |
| 08.06.2025 | 03:00 | 12.8 | 94 | 11.9 | 1004.8 | 3.2 | SW | 0 | 9.4 |
| 08.06.2025 | 03:05 | 13.0 | 94 | 12.1 | 1004.9 | 3.2 | SSW | 0 | 9.4 |
| 08.06.2025 | 03:10 | 13.1 | 94 | 12.2 | 1004.8 | 4.7 | SSW | 0 | 9.4 |
| 08.06.2025 | 03:15 | 13.2 | 94 | 12.3 | 1004.9 | 3.2 | SSW | 0 | 9.4 |
| 08.06.2025 | 03:20 | 13.3 | 94 | 12.4 | 1004.8 | 4.7 | SSW | 0 | 9.4 |
| 08.06.2025 | 03:25 | 13.4 | 94 | 12.5 | 1004.7 | 4.7 | WSW | 0 | 9.4 |
| 08.06.2025 | 03:30 | 13.4 | 94 | 12.5 | 1004.7 | 4.7 | SSW | 0 | 9.4 |
| 08.06.2025 | 03:35 | 13.6 | 94 | 12.7 | 1004.6 | 4.7 | SW | 0 | 9.4 |
| 08.06.2025 | 03:40 | 13.6 | 93 | 12.5 | 1004.7 | 6.5 | SW | 0 | 9.4 |
| 08.06.2025 | 03:45 | 13.6 | 93 | 12.5 | 1004.7 | 4.7 | SSW | 0 | 9.4 |
| 08.06.2025 | 03:50 | 13.7 | 93 | 12.6 | 1004.8 | 6.5 | SW | 0 | 9.4 |
| 08.06.2025 | 03:55 | 13.7 | 93 | 12.6 | 1004.9 | 6.5 | SSW | 0 | 9.4 |
| 08.06.2025 | 04:00 | 13.6 | 93 | 12.5 | 1004.7 | 6.5 | OSO | 0 | 9.6 |
| 08.06.2025 | 04:05 | 13.6 | 93 | 12.5 | 1004.8 | 6.5 | SSW | 0 | 9.8 |
| 08.06.2025 | 04:10 | 13.6 | 93 | 12.5 | 1004.8 | 6.5 | WSW | 0 | 9.8 |
| 08.06.2025 | 04:15 | 13.6 | 93 | 12.5 | 1005.0 | 4.7 | SSW | 0 | 9.8 |
| 08.06.2025 | 04:20 | 13.5 | 93 | 12.4 | 1005.0 | 4.7 | SSW | 0 | 9.8 |
| 08.06.2025 | 04:25 | 13.5 | 93 | 12.4 | 1005.1 | 6.5 | SSW | 0 | 9.8 |
| 08.06.2025 | 04:30 | 13.5 | 93 | 12.4 | 1005.2 | 4.7 | SW | 0 | 9.8 |
| 08.06.2025 | 04:35 | 13.4 | 93 | 12.3 | 1005.2 | 4.7 | SW | 0 | 9.8 |
| 08.06.2025 | 04:40 | 13.4 | 93 | 12.3 | 1005.2 | 3.2 | WSW | 0 | 9.8 |
| 08.06.2025 | 04:45 | 13.4 | 93 | 12.3 | 1005.3 | 3.2 | SW | 0 | 9.8 |
| 08.06.2025 | 04:50 | 13.3 | 93 | 12.2 | 1005.3 | 3.2 | W | 0 | 9.8 |
| 08.06.2025 | 04:55 | 13.3 | 93 | 12.2 | 1005.4 | 4.7 | SSW | 0 | 9.8 |
| 08.06.2025 | 05:00 | 13.3 | 93 | 12.2 | 1005.4 | 3.2 | SW | 0 | 9.8 |
| 08.06.2025 | 05:05 | 13.3 | 93 | 12.2 | 1005.5 | 3.2 | SW | 0 | 9.8 |
| 08.06.2025 | 05:10 | 13.2 | 92 | 11.9 | 1005.5 | 4.7 | SSW | 0 | 9.8 |
| 08.06.2025 | 05:15 | 13.2 | 92 | 11.9 | 1005.6 | 4.7 | SSW | 0 | 9.8 |
| 08.06.2025 | 05:20 | 13.1 | 92 | 11.8 | 1005.7 | 4.7 | SW | 0 | 9.8 |
| 08.06.2025 | 05:25 | 13.1 | 92 | 11.8 | 1005.8 | 4.7 | SSW | 0 | 9.8 |
| 08.06.2025 | 05:30 | 13.1 | 92 | 11.8 | 1005.8 | 4.7 | S | 0 | 9.8 |
| 08.06.2025 | 05:35 | 13.1 | 92 | 11.8 | 1005.8 | 4.7 | SW | 0 | 9.8 |
| 08.06.2025 | 05:40 | 13.1 | 92 | 11.8 | 1005.9 | 4.7 | SW | 0 | 9.8 |
| 08.06.2025 | 05:45 | 13.1 | 92 | 11.8 | 1006.0 | 4.7 | SSW | 0 | 9.8 |
| 08.06.2025 | 05:50 | 13.1 | 92 | 11.8 | 1006.2 | 4.7 | SSW | 0 | 10.0 |
| 08.06.2025 | 05:55 | 12.9 | 91 | 11.5 | 1006.3 | 6.5 | SSW | 5 | 10.2 |
| 08.06.2025 | 06:00 | 12.8 | 90 | 11.2 | 1006.3 | 6.5 | SSW | 5 | 10.2 |
| 08.06.2025 | 06:05 | 12.7 | 90 | 11.1 | 1006.3 | 4.7 | SW | 9 | 10.2 |
| 08.06.2025 | 06:10 | 12.6 | 90 | 11.0 | 1006.4 | 4.7 | SW | 14 | 10.2 |
| 08.06.2025 | 06:15 | 12.4 | 90 | 10.8 | 1006.6 | 3.2 | WSW | 21 | 10.4 |
| 08.06.2025 | 06:20 | 12.3 | 91 | 10.9 | 1006.7 | 1.4 | SW | 23 | 10.4 |
| 08.06.2025 | 06:25 | 12.3 | 91 | 10.9 | 1006.7 | 1.4 | SSO | 23 | 10.4 |
| 08.06.2025 | 06:30 | 12.3 | 92 | 11.0 | 1007.0 | 1.4 | SW | 26 | 10.4 |
| 08.06.2025 | 06:35 | 12.4 | 92 | 11.1 | 1007.1 | 3.2 | SW | 26 | 10.4 |
| 08.06.2025 | 06:40 | 12.4 | 92 | 11.1 | 1007.0 | 3.2 | S | 32 | 10.4 |
| 08.06.2025 | 06:45 | 12.4 | 92 | 11.1 | 1007.2 | 4.7 | SSW | 28 | 10.4 |
| 08.06.2025 | 06:50 | 12.5 | 92 | 11.2 | 1007.2 | 3.2 | S | 32 | 10.4 |
| 08.06.2025 | 06:55 | 12.6 | 91 | 11.2 | 1007.3 | 3.2 | SSW | 42 | 10.4 |
| 08.06.2025 | 07:00 | 12.6 | 92 | 11.3 | 1007.4 | 3.2 | SSW | 74 | 10.4 |
| 08.06.2025 | 07:05 | 12.6 | 92 | 11.3 | 1007.4 | 1.4 | SW | 76 | 10.4 |
| 08.06.2025 | 07:10 | 12.7 | 92 | 11.4 | 1007.3 | 3.2 | SSW | 58 | 10.4 |
| 08.06.2025 | 07:15 | 12.7 | 91 | 11.3 | 1007.5 | 3.2 | SSW | 70 | 10.4 |
| 08.06.2025 | 07:20 | 12.7 | 91 | 11.3 | 1007.5 | 1.4 | S | 42 | 10.4 |
| 08.06.2025 | 07:25 | 12.7 | 91 | 11.3 | 1007.6 | 1.4 | SW | 32 | 10.4 |
| 08.06.2025 | 07:30 | 12.7 | 91 | 11.3 | 1007.6 | 1.4 | WSW | 46 | 10.4 |
| 08.06.2025 | 07:35 | 12.7 | 91 | 11.3 | 1007.7 | 1.4 | O | 19 | 10.4 |
| 08.06.2025 | 07:40 | 12.6 | 92 | 11.3 | 1007.9 | 3.2 | SW | 12 | 10.4 |
| 08.06.2025 | 07:45 | 12.6 | 91 | 11.2 | 1008.0 | 3.2 | SW | 35 | 10.4 |
| 08.06.2025 | 07:50 | 12.6 | 92 | 11.3 | 1008.1 | 4.7 | SSW | 83 | 10.4 |
| 08.06.2025 | 07:55 | 12.6 | 92 | 11.3 | 1008.1 | 3.2 | WNW | 86 | 10.4 |
| 08.06.2025 | 08:00 | 12.6 | 91 | 11.2 | 1008.3 | 4.7 | SSW | 200 | 10.4 |
| 08.06.2025 | 08:05 | 12.6 | 90 | 11.0 | 1008.4 | 4.7 | SSW | 248 | 10.4 |
| 08.06.2025 | 08:10 | 12.7 | 90 | 11.1 | 1008.5 | 6.5 | SW | 153 | 10.4 |
| 08.06.2025 | 08:15 | 12.8 | 90 | 11.2 | 1008.6 | 4.7 | SSW | 220 | 10.4 |
| 08.06.2025 | 08:20 | 12.9 | 90 | 11.3 | 1008.6 | 4.7 | SW | 167 | 10.4 |
| 08.06.2025 | 08:25 | 12.9 | 89 | 11.1 | 1008.7 | 6.5 | SW | 218 | 10.4 |
| 08.06.2025 | 08:30 | 12.9 | 90 | 11.3 | 1008.7 | 4.7 | SW | 171 | 10.4 |
| 08.06.2025 | 08:35 | 12.9 | 89 | 11.1 | 1008.9 | 4.7 | SSO | 135 | 10.4 |
| 08.06.2025 | 08:40 | 12.9 | 89 | 11.1 | 1009.1 | 6.5 | SO | 132 | 10.4 |
| 08.06.2025 | 08:45 | 12.9 | 89 | 11.1 | 1009.0 | 4.7 | S | 192 | 10.4 |
| 08.06.2025 | 08:50 | 12.9 | 89 | 11.1 | 1009.1 | 4.7 | SW | 134 | 10.4 |
| 08.06.2025 | 08:55 | 12.8 | 89 | 11.0 | 1009.2 | 4.7 | S | 167 | 10.4 |
| 08.06.2025 | 09:00 | 12.9 | 90 | 11.3 | 1009.3 | 4.7 | SW | 185 | 10.4 |
| 08.06.2025 | 09:05 | 12.9 | 89 | 11.1 | 1009.4 | 4.7 | SSW | 185 | 10.4 |
| 08.06.2025 | 09:10 | 13.0 | 89 | 11.2 | 1009.5 | 3.2 | SW | 278 | 10.4 |
| 08.06.2025 | 09:15 | 13.2 | 89 | 11.4 | 1009.6 | 3.2 | SW | 404 | 10.4 |
| 08.06.2025 | 09:20 | 13.2 | 87 | 11.1 | 1009.6 | 4.7 | O | 148 | 10.4 |
| 08.06.2025 | 09:25 | 13.2 | 86 | 10.9 | 1009.7 | 4.7 | S | 163 | 10.4 |
| 08.06.2025 | 09:30 | 13.2 | 86 | 10.9 | 1009.8 | 4.7 | SW | 151 | 10.4 |
| 08.06.2025 | 09:35 | 13.2 | 87 | 11.1 | 1009.9 | 4.7 | SSO | 130 | 10.4 |
| 08.06.2025 | 09:40 | 13.1 | 87 | 11.0 | 1010.1 | 4.7 | SW | 188 | 10.4 |
| 08.06.2025 | 09:45 | 13.0 | 88 | 11.1 | 1010.2 | 4.7 | SW | 417 | 10.4 |
| 08.06.2025 | 09:50 | 13.1 | 87 | 11.0 | 1010.3 | 4.7 | SW | 276 | 10.4 |
| 08.06.2025 | 09:55 | 13.3 | 87 | 11.2 | 1010.3 | 4.7 | SW | 220 | 10.4 |
| 08.06.2025 | 10:00 | 13.3 | 86 | 11.0 | 1010.7 | 4.7 | SO | 204 | 10.4 |
| 08.06.2025 | 10:05 | 13.4 | 85 | 10.9 | 1010.6 | 4.7 | S | 181 | 10.4 |
| 08.06.2025 | 10:10 | 13.4 | 86 | 11.1 | 1010.7 | 4.7 | NO | 137 | 10.4 |
| 08.06.2025 | 10:15 | 13.3 | 85 | 10.8 | 1010.8 | 4.7 | OSO | 114 | 10.4 |
| 08.06.2025 | 10:20 | 13.1 | 86 | 10.8 | 1010.9 | 6.5 | WSW | 67 | 10.4 |
| 08.06.2025 | 10:25 | 12.7 | 83 | 9.9 | 1010.9 | 7.9 | SW | 93 | 10.6 |
| 08.06.2025 | 10:30 | 12.4 | 86 | 10.1 | 1011.0 | 7.9 | SW | 118 | 10.6 |
| 08.06.2025 | 10:35 | 12.6 | 87 | 10.5 | 1011.1 | 6.5 | SW | 220 | 10.6 |
| 08.06.2025 | 10:40 | 12.7 | 88 | 10.8 | 1011.3 | 6.5 | SW | 135 | 10.6 |
| 08.06.2025 | 10:45 | 12.6 | 87 | 10.5 | 1011.5 | 7.9 | SW | 67 | 10.6 |
| 08.06.2025 | 10:50 | 12.0 | 86 | 9.7 | 1011.7 | 7.9 | WSW | 105 | 10.8 |
| 08.06.2025 | 10:55 | 11.6 | 87 | 9.5 | 1011.7 | 7.9 | SW | 144 | 11.6 |
| 08.06.2025 | 11:00 | 11.5 | 86 | 9.2 | 1011.8 | 6.5 | SW | 209 | 11.6 |
| 08.06.2025 | 11:05 | 11.5 | 86 | 9.2 | 1011.8 | 7.9 | SSW | 220 | 11.6 |
| 08.06.2025 | 11:10 | 11.8 | 87 | 9.7 | 1011.8 | 4.7 | WSW | 684 | 11.6 |
| 08.06.2025 | 11:15 | 12.1 | 86 | 9.8 | 1011.7 | 3.2 | WSW | 376 | 11.6 |
| 08.06.2025 | 11:20 | 12.3 | 85 | 9.9 | 1011.8 | 3.2 | SW | 253 | 11.6 |
| 08.06.2025 | 11:25 | 12.7 | 85 | 10.2 | 1011.8 | 3.2 | SW | 696 | 11.6 |
| 08.06.2025 | 11:30 | 13.1 | 85 | 10.6 | 1011.9 | 1.4 | WSW | 729 | 11.6 |
| 08.06.2025 | 11:35 | 13.4 | 84 | 10.8 | 1011.9 | 3.2 | SW | 763 | 11.6 |
| 08.06.2025 | 11:40 | 13.9 | 83 | 11.1 | 1012.0 | 4.7 | S | 517 | 11.6 |
| 08.06.2025 | 11:45 | 14.2 | 81 | 11.0 | 1012.0 | 3.2 | SSW | 190 | 11.6 |
| 08.06.2025 | 11:50 | 13.8 | 79 | 10.2 | 1012.3 | 4.7 | W | 264 | 11.6 |
| 08.06.2025 | 11:55 | 13.2 | 81 | 10.0 | 1012.3 | 7.9 | SSW | 113 | 11.6 |
| 08.06.2025 | 12:00 | 12.9 | 84 | 10.3 | 1012.5 | 7.9 | SSW | 290 | 11.6 |
| 08.06.2025 | 12:05 | 13.1 | 84 | 10.5 | 1012.4 | 4.7 | SSW | 369 | 11.8 |
| 08.06.2025 | 12:10 | 13.3 | 81 | 10.1 | 1012.4 | 4.7 | SSW | 457 | 11.8 |
| 08.06.2025 | 12:15 | 13.4 | 79 | 9.8 | 1012.5 | 6.5 | SSW | 519 | 11.8 |
| 08.06.2025 | 12:20 | 13.7 | 78 | 9.9 | 1012.5 | 4.7 | WSW | 807 | 11.8 |
| 08.06.2025 | 12:25 | 14.1 | 78 | 10.3 | 1012.6 | 4.7 | WSW | 821 | 11.8 |
| 08.06.2025 | 12:30 | 14.5 | 77 | 10.5 | 1012.6 | 6.5 | SO | 854 | 11.8 |
| 08.06.2025 | 12:35 | 14.7 | 75 | 10.3 | 1012.7 | 6.5 | S | 392 | 11.8 |
| 08.06.2025 | 12:40 | 14.6 | 75 | 10.2 | 1012.5 | 7.9 | S | 338 | 11.8 |
| 08.06.2025 | 12:45 | 14.5 | 76 | 10.3 | 1012.6 | 7.9 | SSW | 185 | 11.8 |
| 08.06.2025 | 12:50 | 14.4 | 77 | 10.4 | 1012.6 | 7.9 | SSW | 299 | 11.8 |
| 08.06.2025 | 12:55 | 14.3 | 79 | 10.7 | 1012.7 | 6.5 | SSW | 193 | 11.8 |
| 08.06.2025 | 13:00 | 14.3 | 79 | 10.7 | 1012.7 | 4.7 | WNW | 100 | 11.8 |
| 08.06.2025 | 13:05 | 14.1 | 79 | 10.5 | 1012.8 | 4.7 | SSW | 243 | 11.8 |
| 08.06.2025 | 13:10 | 14.2 | 76 | 10.0 | 1012.9 | 7.9 | S | 200 | 11.8 |
| 08.06.2025 | 13:15 | 14.3 | 77 | 10.3 | 1013.0 | 7.9 | SO | 241 | 11.8 |
| 08.06.2025 | 13:20 | 14.1 | 78 | 10.3 | 1013.1 | 6.5 | SSW | 355 | 11.8 |
| 08.06.2025 | 13:25 | 13.9 | 79 | 10.3 | 1013.1 | 4.7 | O | 483 | 11.8 |
| 08.06.2025 | 13:30 | 14.1 | 77 | 10.1 | 1013.3 | 4.7 | SSW | 410 | 11.8 |
| 08.06.2025 | 13:35 | 14.3 | 77 | 10.3 | 1013.2 | 4.7 | SSW | 874 | 11.8 |
| 08.06.2025 | 13:40 | 14.7 | 75 | 10.3 | 1013.3 | 4.7 | SSW | 867 | 11.8 |
| 08.06.2025 | 13:45 | 15.0 | 75 | 10.6 | 1013.2 | 6.5 | SW | 970 | 11.8 |
| 08.06.2025 | 13:50 | 15.2 | 73 | 10.4 | 1013.3 | 4.7 | SW | 338 | 11.8 |
| 08.06.2025 | 13:55 | 15.3 | 72 | 10.3 | 1013.3 | 6.5 | SSW | 338 | 11.8 |
| 08.06.2025 | 14:00 | 15.7 | 72 | 10.7 | 1013.4 | 6.5 | SSW | 905 | 11.8 |
| 08.06.2025 | 14:05 | 15.9 | 70 | 10.4 | 1013.4 | 6.5 | S | 912 | 11.8 |
| 08.06.2025 | 14:10 | 16.0 | 69 | 10.3 | 1013.4 | 6.5 | SW | 262 | 11.8 |
| 08.06.2025 | 14:15 | 16.1 | 71 | 10.8 | 1013.4 | 6.5 | SSW | 870 | 11.8 |
| 08.06.2025 | 14:20 | 16.2 | 71 | 10.9 | 1013.4 | 4.7 | SSW | 932 | 11.8 |
| 08.06.2025 | 14:25 | 16.4 | 71 | 11.1 | 1013.4 | 6.5 | SW | 863 | 11.8 |
| 08.06.2025 | 14:30 | 16.4 | 70 | 10.9 | 1013.5 | 6.5 | W | 294 | 11.8 |
| 08.06.2025 | 14:35 | 16.4 | 70 | 10.9 | 1013.6 | 6.5 | SSW | 960 | 11.8 |
| 08.06.2025 | 14:40 | 16.5 | 71 | 11.2 | 1013.6 | 6.5 | SW | 900 | 11.8 |
| 08.06.2025 | 14:45 | 16.6 | 61 | 9.0 | 1013.6 | 7.9 | SW | 846 | 11.8 |
| 08.06.2025 | 14:50 | 16.7 | 57 | 8.1 | 1013.6 | 9.7 | S | 844 | 11.8 |
| 08.06.2025 | 14:55 | 16.8 | 58 | 8.5 | 1013.6 | 9.7 | WSW | 858 | 11.8 |
| 08.06.2025 | 15:00 | 16.8 | 58 | 8.5 | 1013.8 | 9.7 | W | 970 | 11.8 |
| 08.06.2025 | 15:05 | 16.7 | 58 | 8.4 | 1014.0 | 11.2 | SSO | 302 | 11.8 |
| 08.06.2025 | 15:10 | 16.7 | 60 | 8.9 | 1013.9 | 11.2 | NNW | 478 | 11.8 |
| 08.06.2025 | 15:15 | 17.1 | 59 | 9.0 | 1014.0 | 9.7 | SSW | 856 | 11.8 |
| 08.06.2025 | 15:20 | 17.2 | 55 | 8.1 | 1014.0 | 7.9 | S | 805 | 11.8 |
| 08.06.2025 | 15:25 | 17.2 | 55 | 8.1 | 1014.2 | 9.7 | SSO | 798 | 11.8 |
| 08.06.2025 | 15:30 | 17.2 | 54 | 7.8 | 1014.2 | 9.7 | SW | 858 | 11.8 |
| 08.06.2025 | 15:35 | 17.6 | 51 | 7.3 | 1014.3 | 9.7 | SSW | 853 | 11.8 |
| 08.06.2025 | 15:40 | 17.6 | 54 | 8.2 | 1014.4 | 6.5 | WSW | 306 | 11.8 |
| 08.06.2025 | 15:45 | 17.2 | 54 | 7.8 | 1014.4 | 7.9 | SSW | 223 | 11.8 |
| 08.06.2025 | 15:50 | 16.8 | 56 | 8.0 | 1014.5 | 7.9 | SSW | 807 | 11.8 |
| 08.06.2025 | 15:55 | 16.9 | 56 | 8.1 | 1014.5 | 9.7 | SSW | 847 | 11.8 |
| 08.06.2025 | 16:00 | 16.8 | 56 | 8.0 | 1014.6 | 9.7 | WSW | 766 | 11.8 |
| 08.06.2025 | 16:05 | 16.9 | 54 | 7.5 | 1014.7 | 7.9 | S | 712 | 11.8 |
| 08.06.2025 | 16:10 | 16.9 | 52 | 7.0 | 1014.9 | 9.7 | SW | 204 | 11.8 |
| 08.06.2025 | 16:15 | 16.7 | 53 | 7.1 | 1014.9 | 9.7 | S | 809 | 11.8 |
| 08.06.2025 | 16:20 | 17.1 | 54 | 7.7 | 1014.9 | 7.9 | SW | 770 | 11.8 |
| 08.06.2025 | 16:25 | 17.1 | 53 | 7.4 | 1015.2 | 7.9 | SSW | 193 | 11.8 |
| 08.06.2025 | 16:30 | 17.1 | 54 | 7.7 | 1015.2 | 7.9 | SW | 737 | 11.8 |
| 08.06.2025 | 16:35 | 17.2 | 54 | 7.8 | 1015.3 | 6.5 | SSW | 308 | 11.8 |
| 08.06.2025 | 16:40 | 17.0 | 53 | 7.3 | 1015.3 | 9.7 | SSW | 183 | 11.8 |
| 08.06.2025 | 16:45 | 16.8 | 53 | 7.2 | 1015.4 | 9.7 | WSW | 195 | 11.8 |
| 08.06.2025 | 16:50 | 16.8 | 53 | 7.2 | 1015.5 | 7.9 | SSW | 596 | 11.8 |
| 08.06.2025 | 16:55 | 16.8 | 55 | 7.7 | 1015.6 | 7.9 | WSW | 624 | 11.8 |
| 08.06.2025 | 17:00 | 17.0 | 54 | 7.6 | 1015.6 | 7.9 | SW | 612 | 11.8 |
| 08.06.2025 | 17:05 | 17.1 | 54 | 7.7 | 1015.7 | 6.5 | SW | 258 | 11.8 |
| 08.06.2025 | 17:10 | 16.8 | 55 | 7.7 | 1015.6 | 6.5 | SSW | 199 | 11.8 |
| 08.06.2025 | 17:15 | 16.9 | 55 | 7.8 | 1015.6 | 6.5 | SSW | 541 | 11.8 |
| 08.06.2025 | 17:20 | 17.2 | 54 | 7.8 | 1015.7 | 6.5 | SW | 262 | 11.8 |
| 08.06.2025 | 17:25 | 17.0 | 53 | 7.3 | 1015.9 | 6.5 | SSW | 323 | 11.8 |
| 08.06.2025 | 17:30 | 16.9 | 55 | 7.8 | 1015.8 | 6.5 | SW | 144 | 11.8 |
| 08.06.2025 | 17:35 | 16.7 | 54 | 7.3 | 1015.8 | 6.5 | SSW | 183 | 11.8 |
| 08.06.2025 | 17:40 | 16.7 | 56 | 7.9 | 1015.8 | 6.5 | ONO | 490 | 11.8 |
| 08.06.2025 | 17:45 | 16.8 | 55 | 7.7 | 1015.8 | 6.5 | WSW | 318 | 11.8 |
| 08.06.2025 | 17:50 | 16.9 | 55 | 7.8 | 1015.8 | 6.5 | SSW | 160 | 11.8 |
| 08.06.2025 | 17:55 | 16.7 | 55 | 7.6 | 1015.8 | 6.5 | SW | 541 | 11.8 |
| 08.06.2025 | 18:00 | 16.8 | 55 | 7.7 | 1015.9 | 7.9 | SSW | 446 | 11.8 |
| 08.06.2025 | 18:05 | 17.1 | 55 | 8.0 | 1016.0 | 6.5 | SSW | 408 | 11.8 |
| 08.06.2025 | 18:10 | 17.0 | 52 | 7.1 | 1016.0 | 6.5 | SSW | 172 | 11.8 |
| 08.06.2025 | 18:15 | 16.9 | 54 | 7.5 | 1016.0 | 7.9 | SSW | 216 | 11.8 |
| 08.06.2025 | 18:20 | 16.8 | 54 | 7.4 | 1016.1 | 7.9 | SSW | 236 | 11.8 |
| 08.06.2025 | 18:25 | 16.6 | 55 | 7.5 | 1016.1 | 7.9 | SSW | 246 | 11.8 |
| 08.06.2025 | 18:30 | 16.8 | 55 | 7.7 | 1016.1 | 6.5 | SSW | 151 | 11.8 |
| 08.06.2025 | 18:35 | 16.8 | 53 | 7.2 | 1016.2 | 7.9 | SW | 315 | 11.8 |
| 08.06.2025 | 18:40 | 16.8 | 53 | 7.2 | 1016.2 | 7.9 | SSW | 137 | 11.8 |
| 08.06.2025 | 18:45 | 16.8 | 53 | 7.2 | 1016.3 | 7.9 | SSW | 211 | 11.8 |
| 08.06.2025 | 18:50 | 16.9 | 53 | 7.3 | 1016.4 | 6.5 | SW | 118 | 11.8 |
| 08.06.2025 | 18:55 | 16.9 | 54 | 7.5 | 1016.4 | 6.5 | S | 116 | 11.8 |
| 08.06.2025 | 19:00 | 16.8 | 53 | 7.2 | 1016.5 | 6.5 | SSW | 104 | 11.8 |
| 08.06.2025 | 19:05 | 16.7 | 55 | 7.6 | 1016.5 | 6.5 | SSW | 121 | 11.8 |
| 08.06.2025 | 19:10 | 16.8 | 55 | 7.7 | 1016.6 | 4.7 | SSW | 113 | 11.8 |
| 08.06.2025 | 19:15 | 16.9 | 54 | 7.5 | 1016.6 | 4.7 | S | 116 | 11.8 |
| 08.06.2025 | 19:20 | 17.2 | 54 | 7.8 | 1016.7 | 4.7 | SW | 91 | 11.8 |
| 08.06.2025 | 19:25 | 17.2 | 53 | 7.5 | 1016.8 | 3.2 | SW | 77 | 11.8 |
| 08.06.2025 | 19:30 | 17.0 | 52 | 7.1 | 1016.8 | 6.5 | SSW | 70 | 11.8 |
| 08.06.2025 | 19:35 | 16.8 | 52 | 6.9 | 1016.8 | 7.9 | SSW | 67 | 11.8 |
| 08.06.2025 | 19:40 | 16.6 | 53 | 7.0 | 1016.8 | 6.5 | SW | 65 | 11.8 |
| 08.06.2025 | 19:45 | 16.4 | 53 | 6.8 | 1017.0 | 7.9 | SW | 62 | 11.8 |
| 08.06.2025 | 19:50 | 16.4 | 54 | 7.1 | 1017.0 | 6.5 | N | 62 | 11.8 |
| 08.06.2025 | 19:55 | 16.4 | 54 | 7.1 | 1017.0 | 6.5 | SSW | 63 | 11.8 |
| 08.06.2025 | 20:00 | 16.4 | 54 | 7.1 | 1017.1 | 4.7 | WSW | 56 | 11.8 |
| 08.06.2025 | 20:05 | 16.4 | 55 | 7.3 | 1017.1 | 3.2 | SW | 53 | 11.8 |
| 08.06.2025 | 20:10 | 16.6 | 56 | 7.8 | 1017.2 | 3.2 | SW | 47 | 11.8 |
| 08.06.2025 | 20:15 | 16.4 | 56 | 7.6 | 1017.2 | 3.2 | SW | 46 | 11.8 |
| 08.06.2025 | 20:20 | 16.4 | 56 | 7.6 | 1017.4 | 3.2 | WSW | 42 | 11.8 |
| 08.06.2025 | 20:25 | 16.4 | 57 | 7.9 | 1017.3 | 1.4 | WSW | 39 | 11.8 |
| 08.06.2025 | 20:30 | 16.4 | 56 | 7.6 | 1017.3 | 0.0 | SW | 35 | 11.8 |
| 08.06.2025 | 20:35 | 16.4 | 56 | 7.6 | 1017.4 | 0.0 | S | 33 | 11.8 |
| 08.06.2025 | 20:40 | 16.3 | 57 | 7.8 | 1017.4 | 1.4 | SW | 30 | 11.8 |
| 08.06.2025 | 20:45 | 16.2 | 56 | 7.4 | 1017.4 | 1.4 | W | 28 | 11.8 |
| 08.06.2025 | 20:50 | 16.2 | 57 | 7.7 | 1017.6 | 0.0 | SSW | 26 | 11.8 |
| 08.06.2025 | 20:55 | 16.0 | 58 | 7.7 | 1017.8 | 0.0 | SSW | 23 | 11.8 |
| 08.06.2025 | 21:00 | 15.9 | 58 | 7.6 | 1017.8 | 0.0 | SSW | 19 | 11.8 |
| 08.06.2025 | 21:05 | 15.8 | 59 | 7.8 | 1017.8 | 0.0 | SSW | 16 | 11.8 |
| 08.06.2025 | 21:10 | 15.6 | 60 | 7.9 | 1017.9 | 0.0 | SSW | 14 | 11.8 |
| 08.06.2025 | 21:15 | 15.4 | 60 | 7.7 | 1017.8 | 0.0 | SSW | 12 | 11.8 |
| 08.06.2025 | 21:20 | 15.2 | 61 | 7.7 | 1017.9 | 0.0 | SSW | 9 | 11.8 |
| 08.06.2025 | 21:25 | 14.9 | 62 | 7.7 | 1018.0 | 0.0 | SSW | 7 | 11.8 |
| 08.06.2025 | 21:30 | 14.7 | 63 | 7.7 | 1018.1 | 0.0 | SSW | 5 | 11.8 |
| 08.06.2025 | 21:35 | 14.4 | 64 | 7.7 | 1018.1 | 0.0 | SSW | 0 | 11.8 |
| 08.06.2025 | 21:40 | 14.2 | 65 | 7.7 | 1018.2 | 0.0 | SSW | 0 | 11.8 |
| 08.06.2025 | 21:45 | 13.9 | 66 | 7.7 | 1018.2 | 0.0 | SSW | 0 | 11.8 |
| 08.06.2025 | 21:50 | 13.7 | 68 | 7.9 | 1018.3 | 0.0 | SSW | 0 | 11.8 |
| 08.06.2025 | 21:55 | 13.4 | 69 | 7.8 | 1018.4 | 0.0 | SSW | 0 | 11.8 |
| 08.06.2025 | 22:00 | 13.2 | 70 | 7.8 | 1018.4 | 0.0 | SSW | 0 | 11.8 |
| 08.06.2025 | 22:05 | 12.9 | 71 | 7.8 | 1018.6 | 0.0 | SSW | 0 | 11.8 |
| 08.06.2025 | 22:10 | 12.7 | 72 | 7.8 | 1018.6 | 0.0 | SSW | 0 | 11.8 |
| 08.06.2025 | 22:15 | 12.4 | 73 | 7.7 | 1018.6 | 0.0 | SSW | 0 | 11.8 |
| 08.06.2025 | 22:20 | 12.1 | 75 | 7.8 | 1018.7 | 0.0 | SSW | 0 | 11.8 |
| 08.06.2025 | 22:25 | 11.8 | 76 | 7.7 | 1018.7 | 0.0 | SSW | 0 | 11.8 |
| 08.06.2025 | 22:30 | 11.7 | 77 | 7.8 | 1018.7 | 0.0 | SSW | 0 | 11.8 |
| 08.06.2025 | 22:35 | 11.4 | 78 | 7.7 | 1018.7 | 0.0 | SSW | 0 | 11.8 |
| 08.06.2025 | 22:40 | 11.2 | 78 | 7.5 | 1018.8 | 0.0 | SSW | 0 | 11.8 |
| 08.06.2025 | 22:45 | 11.1 | 79 | 7.6 | 1018.8 | 0.0 | SSW | 0 | 11.8 |
| 08.06.2025 | 22:50 | 10.9 | 79 | 7.4 | 1018.7 | 0.0 | SSW | 0 | 11.8 |
| 08.06.2025 | 22:55 | 10.7 | 80 | 7.4 | 1018.7 | 0.0 | SSW | 0 | 11.8 |
| 08.06.2025 | 23:00 | 10.6 | 80 | 7.3 | 1018.7 | 0.0 | SSW | 0 | 11.8 |
| 08.06.2025 | 23:05 | 10.4 | 81 | 7.3 | 1018.8 | 0.0 | SSW | 0 | 11.8 |
| 08.06.2025 | 23:10 | 10.3 | 82 | 7.4 | 1018.9 | 0.0 | SSW | 0 | 11.8 |
| 08.06.2025 | 23:15 | 10.1 | 82 | 7.2 | 1018.9 | 0.0 | SSW | 0 | 11.8 |
| 08.06.2025 | 23:20 | 9.9 | 83 | 7.1 | 1019.0 | 0.0 | SSW | 0 | 11.8 |
| 08.06.2025 | 23:25 | 9.7 | 83 | 7.0 | 1019.0 | 0.0 | SSW | 0 | 11.8 |
| 08.06.2025 | 23:30 | 9.6 | 84 | 7.0 | 1019.1 | 0.0 | SSW | 0 | 11.8 |
| 08.06.2025 | 23:35 | 9.4 | 85 | 7.0 | 1019.1 | 0.0 | SSW | 0 | 11.8 |
| 08.06.2025 | 23:40 | 9.3 | 85 | 6.9 | 1019.1 | 0.0 | SSW | 0 | 11.8 |
| 08.06.2025 | 23:45 | 9.2 | 85 | 6.8 | 1019.0 | 0.0 | SSW | 0 | 11.8 |
| 08.06.2025 | 23:50 | 9.1 | 86 | 6.9 | 1019.1 | 0.0 | SSW | 0 | 11.8 |
| 08.06.2025 | 23:55 | 9.0 | 86 | 6.8 | 1019.1 | 0.0 | SSW | 0 | 11.8 |